Tymvou, Cyprus
Current Conditions -  °F | °C
As of 7:50 PM on Friday 28 Nov 2014 (Local Time) from LCEN Reporting Station
Scattered Clouds Scattered Clouds  
Wind Chill: 57°   Ceiling: Unl
Heat Index: 57°   Visibility: 6mi
Dew Point: 46°   Wind: 5mph
Humidity: 67%   Direction: 270°W
Pressure: 30.21"   Gusts: NA
Location:  35.13°N, 33.52°E
Report Text: LCEN 281650Z 27004KT 9999 FEW025 SCT040 14/08 Q1023 NOSIG
Loading
Personal Weather Stations






























Interactive Weather Map New forecast layout! Learn more

10-Day Weather Forecast

Advertisements
Track Severe Weather on mobile